sensor_id;sensor_type;location;lat;lon;timestamp;P1;durP1;ratioP1;P2;durP2;ratioP2
4533;SDS011;2279;51.448;7.306;2023-07-13T00:01:11;3.67;;;2.13;;
4533;SDS011;2279;51.448;7.306;2023-07-13T00:03:37;2.60;;;1.90;;
4533;SDS011;2279;51.448;7.306;2023-07-13T00:06:05;3.70;;;2.10;;
4533;SDS011;2279;51.448;7.306;2023-07-13T00:08:32;6.10;;;2.33;;
4533;SDS011;2279;51.448;7.306;2023-07-13T00:10:58;12.53;;;3.00;;
4533;SDS011;2279;51.448;7.306;2023-07-13T00:13:24;4.40;;;2.50;;
4533;SDS011;2279;51.448;7.306;2023-07-13T00:15:50;6.30;;;2.47;;
4533;SDS011;2279;51.448;7.306;2023-07-13T00:18:16;7.40;;;2.30;;
4533;SDS011;2279;51.448;7.306;2023-07-13T00:20:42;2.83;;;2.40;;
4533;SDS011;2279;51.448;7.306;2023-07-13T00:23:08;4.37;;;3.00;;
4533;SDS011;2279;51.448;7.306;2023-07-13T00:25:34;9.87;;;2.60;;
4533;SDS011;2279;51.448;7.306;2023-07-13T00:28:00;2.80;;;2.10;;
4533;SDS011;2279;51.448;7.306;2023-07-13T00:30:26;9.47;;;2.90;;
4533;SDS011;2279;51.448;7.306;2023-07-13T00:32:52;2.53;;;2.13;;
4533;SDS011;2279;51.448;7.306;2023-07-13T00:35:18;6.63;;;2.20;;
4533;SDS011;2279;51.448;7.306;2023-07-13T00:37:44;5.00;;;2.00;;
4533;SDS011;2279;51.448;7.306;2023-07-13T00:40:11;2.53;;;2.20;;
4533;SDS011;2279;51.448;7.306;2023-07-13T00:42:38;2.03;;;1.83;;
4533;SDS011;2279;51.448;7.306;2023-07-13T00:47:33;4.60;;;2.33;;
4533;SDS011;2279;51.448;7.306;2023-07-13T00:49:59;3.00;;;2.70;;
4533;SDS011;2279;51.448;7.306;2023-07-13T00:52:25;3.37;;;2.30;;
4533;SDS011;2279;51.448;7.306;2023-07-13T00:54:53;2.70;;;2.50;;
4533;SDS011;2279;51.448;7.306;2023-07-13T00:57:19;5.97;;;2.47;;
4533;SDS011;2279;51.448;7.306;2023-07-13T00:59:47;5.37;;;1.90;;
4533;SDS011;2279;51.448;7.306;2023-07-13T01:02:14;8.00;;;2.30;;
4533;SDS011;2279;51.448;7.306;2023-07-13T01:04:41;4.03;;;2.10;;
4533;SDS011;2279;51.448;7.306;2023-07-13T01:07:09;5.13;;;2.53;;
4533;SDS011;2279;51.448;7.306;2023-07-13T01:09:36;8.30;;;3.27;;
4533;SDS011;2279;51.448;7.306;2023-07-13T01:12:02;4.03;;;1.87;;
4533;SDS011;2279;51.448;7.306;2023-07-13T01:14:28;3.07;;;2.27;;
4533;SDS011;2279;51.448;7.306;2023-07-13T01:16:54;7.33;;;2.10;;
4533;SDS011;2279;51.448;7.306;2023-07-13T01:19:23;6.30;;;2.03;;
4533;SDS011;2279;51.448;7.306;2023-07-13T01:21:54;2.63;;;2.43;;
4533;SDS011;2279;51.448;7.306;2023-07-13T01:24:20;5.47;;;2.80;;
4533;SDS011;2279;51.448;7.306;2023-07-13T01:26:46;6.43;;;2.00;;
4533;SDS011;2279;51.448;7.306;2023-07-13T01:29:12;2.67;;;2.30;;
4533;SDS011;2279;51.448;7.306;2023-07-13T01:31:38;3.97;;;2.43;;
4533;SDS011;2279;51.448;7.306;2023-07-13T01:34:04;3.57;;;2.03;;
4533;SDS011;2279;51.448;7.306;2023-07-13T01:36:30;5.03;;;1.90;;
4533;SDS011;2279;51.448;7.306;2023-07-13T01:38:56;5.43;;;2.27;;
4533;SDS011;2279;51.448;7.306;2023-07-13T01:41:22;4.33;;;2.20;;
4533;SDS011;2279;51.448;7.306;2023-07-13T01:43:48;2.70;;;1.97;;
4533;SDS011;2279;51.448;7.306;2023-07-13T01:46:14;4.00;;;2.27;;
4533;SDS011;2279;51.448;7.306;2023-07-13T01:48:40;8.20;;;2.63;;
4533;SDS011;2279;51.448;7.306;2023-07-13T01:51:06;4.23;;;1.90;;
4533;SDS011;2279;51.448;7.306;2023-07-13T01:53:32;4.87;;;1.97;;
4533;SDS011;2279;51.448;7.306;2023-07-13T01:55:58;2.17;;;1.97;;
4533;SDS011;2279;51.448;7.306;2023-07-13T01:58:24;5.43;;;2.27;;
4533;SDS011;2279;51.448;7.306;2023-07-13T02:00:51;10.03;;;2.43;;
4533;SDS011;2279;51.448;7.306;2023-07-13T02:03:17;5.80;;;2.00;;
4533;SDS011;2279;51.448;7.306;2023-07-13T02:05:44;4.70;;;1.83;;
4533;SDS011;2279;51.448;7.306;2023-07-13T02:08:10;5.40;;;2.40;;
4533;SDS011;2279;51.448;7.306;2023-07-13T02:10:37;9.07;;;3.23;;
4533;SDS011;2279;51.448;7.306;2023-07-13T02:13:05;5.60;;;2.27;;
4533;SDS011;2279;51.448;7.306;2023-07-13T02:15:31;3.33;;;1.90;;
4533;SDS011;2279;51.448;7.306;2023-07-13T02:17:57;2.07;;;1.80;;
4533;SDS011;2279;51.448;7.306;2023-07-13T02:20:23;2.60;;;2.10;;
4533;SDS011;2279;51.448;7.306;2023-07-13T02:22:49;11.17;;;2.43;;
4533;SDS011;2279;51.448;7.306;2023-07-13T02:25:15;4.10;;;2.40;;
4533;SDS011;2279;51.448;7.306;2023-07-13T02:27:41;2.80;;;2.17;;
4533;SDS011;2279;51.448;7.306;2023-07-13T02:30:07;3.33;;;1.80;;
4533;SDS011;2279;51.448;7.306;2023-07-13T02:32:33;3.73;;;2.40;;
4533;SDS011;2279;51.448;7.306;2023-07-13T02:35:00;6.90;;;2.37;;
4533;SDS011;2279;51.448;7.306;2023-07-13T02:37:26;4.87;;;2.20;;
4533;SDS011;2279;51.448;7.306;2023-07-13T02:39:52;2.43;;;2.10;;
4533;SDS011;2279;51.448;7.306;2023-07-13T02:42:19;5.20;;;1.90;;
4533;SDS011;2279;51.448;7.306;2023-07-13T02:44:45;2.80;;;2.23;;
4533;SDS011;2279;51.448;7.306;2023-07-13T02:47:11;4.97;;;2.20;;
4533;SDS011;2279;51.448;7.306;2023-07-13T02:49:38;3.90;;;2.23;;
4533;SDS011;2279;51.448;7.306;2023-07-13T02:52:04;5.57;;;2.30;;
4533;SDS011;2279;51.448;7.306;2023-07-13T02:54:30;2.53;;;2.23;;
4533;SDS011;2279;51.448;7.306;2023-07-13T02:56:56;4.40;;;2.10;;
4533;SDS011;2279;51.448;7.306;2023-07-13T02:59:22;3.97;;;2.20;;
4533;SDS011;2279;51.448;7.306;2023-07-13T03:01:48;4.00;;;2.37;;
4533;SDS011;2279;51.448;7.306;2023-07-13T03:04:14;5.23;;;2.60;;
4533;SDS011;2279;51.448;7.306;2023-07-13T03:06:44;6.17;;;2.23;;
4533;SDS011;2279;51.448;7.306;2023-07-13T03:09:10;3.77;;;2.70;;
4533;SDS011;2279;51.448;7.306;2023-07-13T03:11:37;5.07;;;2.00;;
4533;SDS011;2279;51.448;7.306;2023-07-13T03:14:03;2.33;;;1.83;;
4533;SDS011;2279;51.448;7.306;2023-07-13T03:16:29;4.80;;;1.70;;
4533;SDS011;2279;51.448;7.306;2023-07-13T03:18:55;4.27;;;2.20;;
4533;SDS011;2279;51.448;7.306;2023-07-13T03:21:21;3.03;;;2.17;;
4533;SDS011;2279;51.448;7.306;2023-07-13T03:23:47;5.43;;;2.20;;
4533;SDS011;2279;51.448;7.306;2023-07-13T03:26:15;2.60;;;2.03;;
4533;SDS011;2279;51.448;7.306;2023-07-13T03:28:41;8.17;;;2.00;;
4533;SDS011;2279;51.448;7.306;2023-07-13T03:31:12;3.30;;;2.20;;
4533;SDS011;2279;51.448;7.306;2023-07-13T03:33:39;3.80;;;2.40;;
4533;SDS011;2279;51.448;7.306;2023-07-13T03:36:06;3.77;;;2.00;;
4533;SDS011;2279;51.448;7.306;2023-07-13T03:38:33;3.50;;;2.00;;
4533;SDS011;2279;51.448;7.306;2023-07-13T03:40:59;5.97;;;2.50;;
4533;SDS011;2279;51.448;7.306;2023-07-13T03:43:25;2.23;;;1.90;;
4533;SDS011;2279;51.448;7.306;2023-07-13T03:45:51;3.47;;;1.90;;
4533;SDS011;2279;51.448;7.306;2023-07-13T03:48:17;2.13;;;1.93;;
4533;SDS011;2279;51.448;7.306;2023-07-13T03:50:43;6.03;;;2.20;;
4533;SDS011;2279;51.448;7.306;2023-07-13T03:53:09;2.87;;;2.10;;
4533;SDS011;2279;51.448;7.306;2023-07-13T03:55:35;4.27;;;2.03;;
4533;SDS011;2279;51.448;7.306;2023-07-13T03:58:22;14.00;;;2.70;;
4533;SDS011;2279;51.448;7.306;2023-07-13T04:00:47;4.90;;;2.23;;
4533;SDS011;2279;51.448;7.306;2023-07-13T04:03:16;3.40;;;2.00;;
4533;SDS011;2279;51.448;7.306;2023-07-13T04:05:42;4.80;;;2.17;;
4533;SDS011;2279;51.448;7.306;2023-07-13T04:08:08;3.97;;;2.20;;
4533;SDS011;2279;51.448;7.306;2023-07-13T04:10:34;9.00;;;2.53;;
4533;SDS011;2279;51.448;7.306;2023-07-13T04:13:00;5.90;;;1.97;;
4533;SDS011;2279;51.448;7.306;2023-07-13T04:15:28;6.03;;;2.33;;
4533;SDS011;2279;51.448;7.306;2023-07-13T04:17:54;4.23;;;1.80;;
4533;SDS011;2279;51.448;7.306;2023-07-13T04:20:20;7.47;;;3.00;;
4533;SDS011;2279;51.448;7.306;2023-07-13T04:22:48;3.73;;;2.10;;
4533;SDS011;2279;51.448;7.306;2023-07-13T04:25:14;5.23;;;2.23;;
4533;SDS011;2279;51.448;7.306;2023-07-13T04:27:40;8.17;;;2.43;;
4533;SDS011;2279;51.448;7.306;2023-07-13T04:30:06;5.80;;;2.40;;
4533;SDS011;2279;51.448;7.306;2023-07-13T04:32:34;3.23;;;2.40;;
4533;SDS011;2279;51.448;7.306;2023-07-13T04:34:59;4.03;;;1.90;;
4533;SDS011;2279;51.448;7.306;2023-07-13T04:37:26;4.70;;;2.60;;
4533;SDS011;2279;51.448;7.306;2023-07-13T04:39:52;5.77;;;2.87;;
4533;SDS011;2279;51.448;7.306;2023-07-13T04:42:18;3.53;;;2.20;;
4533;SDS011;2279;51.448;7.306;2023-07-13T04:44:48;2.80;;;2.30;;
4533;SDS011;2279;51.448;7.306;2023-07-13T04:47:15;4.70;;;2.30;;
4533;SDS011;2279;51.448;7.306;2023-07-13T04:49:42;12.27;;;2.90;;
4533;SDS011;2279;51.448;7.306;2023-07-13T04:52:08;4.80;;;2.20;;
4533;SDS011;2279;51.448;7.306;2023-07-13T04:54:34;2.67;;;2.40;;
4533;SDS011;2279;51.448;7.306;2023-07-13T04:57:02;4.80;;;2.37;;
4533;SDS011;2279;51.448;7.306;2023-07-13T04:59:28;3.40;;;2.30;;
4533;SDS011;2279;51.448;7.306;2023-07-13T05:01:54;3.60;;;2.00;;
4533;SDS011;2279;51.448;7.306;2023-07-13T05:04:20;5.27;;;2.50;;
4533;SDS011;2279;51.448;7.306;2023-07-13T05:06:46;5.73;;;2.07;;
4533;SDS011;2279;51.448;7.306;2023-07-13T05:09:13;2.90;;;2.07;;
4533;SDS011;2279;51.448;7.306;2023-07-13T05:11:39;2.93;;;2.10;;
4533;SDS011;2279;51.448;7.306;2023-07-13T05:14:05;3.33;;;2.60;;
4533;SDS011;2279;51.448;7.306;2023-07-13T05:16:31;5.50;;;2.30;;
4533;SDS011;2279;51.448;7.306;2023-07-13T05:18:57;3.70;;;2.20;;
4533;SDS011;2279;51.448;7.306;2023-07-13T05:21:23;3.20;;;2.37;;
4533;SDS011;2279;51.448;7.306;2023-07-13T05:23:49;7.07;;;2.47;;
4533;SDS011;2279;51.448;7.306;2023-07-13T05:26:15;6.93;;;2.40;;
4533;SDS011;2279;51.448;7.306;2023-07-13T05:28:41;5.17;;;2.30;;
4533;SDS011;2279;51.448;7.306;2023-07-13T05:31:08;4.30;;;2.13;;
4533;SDS011;2279;51.448;7.306;2023-07-13T05:33:34;5.53;;;2.00;;
4533;SDS011;2279;51.448;7.306;2023-07-13T05:36:00;5.87;;;2.17;;
4533;SDS011;2279;51.448;7.306;2023-07-13T05:38:27;5.30;;;2.53;;
4533;SDS011;2279;51.448;7.306;2023-07-13T05:40:55;5.00;;;2.70;;
4533;SDS011;2279;51.448;7.306;2023-07-13T05:43:22;8.30;;;2.47;;
4533;SDS011;2279;51.448;7.306;2023-07-13T05:45:48;9.47;;;3.37;;
4533;SDS011;2279;51.448;7.306;2023-07-13T05:48:15;2.60;;;2.40;;
4533;SDS011;2279;51.448;7.306;2023-07-13T05:50:41;3.33;;;2.30;;
4533;SDS011;2279;51.448;7.306;2023-07-13T05:53:06;2.90;;;2.53;;
4533;SDS011;2279;51.448;7.306;2023-07-13T05:55:32;4.73;;;2.70;;
4533;SDS011;2279;51.448;7.306;2023-07-13T05:57:59;4.47;;;2.43;;
4533;SDS011;2279;51.448;7.306;2023-07-13T06:00:25;4.37;;;2.57;;
4533;SDS011;2279;51.448;7.306;2023-07-13T06:02:53;3.10;;;2.60;;
4533;SDS011;2279;51.448;7.306;2023-07-13T06:05:19;7.77;;;2.70;;
4533;SDS011;2279;51.448;7.306;2023-07-13T06:07:45;10.90;;;3.13;;
4533;SDS011;2279;51.448;7.306;2023-07-13T06:10:11;5.53;;;2.67;;
4533;SDS011;2279;51.448;7.306;2023-07-13T06:12:37;14.40;;;2.90;;
4533;SDS011;2279;51.448;7.306;2023-07-13T06:15:03;4.53;;;3.27;;
4533;SDS011;2279;51.448;7.306;2023-07-13T06:17:29;3.77;;;3.33;;
4533;SDS011;2279;51.448;7.306;2023-07-13T06:19:55;11.00;;;3.60;;
4533;SDS011;2279;51.448;7.306;2023-07-13T06:22:21;6.57;;;2.77;;
4533;SDS011;2279;51.448;7.306;2023-07-13T06:24:47;7.20;;;3.60;;
4533;SDS011;2279;51.448;7.306;2023-07-13T06:27:13;6.90;;;2.77;;
4533;SDS011;2279;51.448;7.306;2023-07-13T06:29:38;8.07;;;2.97;;
4533;SDS011;2279;51.448;7.306;2023-07-13T06:32:06;7.50;;;3.13;;
4533;SDS011;2279;51.448;7.306;2023-07-13T06:34:32;9.07;;;3.27;;
4533;SDS011;2279;51.448;7.306;2023-07-13T06:36:58;12.90;;;4.23;;
4533;SDS011;2279;51.448;7.306;2023-07-13T06:39:24;3.83;;;3.10;;
4533;SDS011;2279;51.448;7.306;2023-07-13T06:41:50;10.20;;;3.43;;
4533;SDS011;2279;51.448;7.306;2023-07-13T06:44:16;8.23;;;3.50;;
4533;SDS011;2279;51.448;7.306;2023-07-13T06:46:43;10.07;;;3.73;;
4533;SDS011;2279;51.448;7.306;2023-07-13T06:49:09;9.60;;;3.23;;
4533;SDS011;2279;51.448;7.306;2023-07-13T06:51:35;5.83;;;3.00;;
4533;SDS011;2279;51.448;7.306;2023-07-13T06:54:01;10.93;;;3.47;;
4533;SDS011;2279;51.448;7.306;2023-07-13T06:56:27;10.23;;;3.00;;
4533;SDS011;2279;51.448;7.306;2023-07-13T06:58:53;9.60;;;3.40;;
4533;SDS011;2279;51.448;7.306;2023-07-13T07:01:20;11.20;;;3.60;;
4533;SDS011;2279;51.448;7.306;2023-07-13T07:03:45;8.67;;;3.10;;
4533;SDS011;2279;51.448;7.306;2023-07-13T07:08:39;9.43;;;2.83;;
4533;SDS011;2279;51.448;7.306;2023-07-13T07:11:05;8.10;;;3.23;;
4533;SDS011;2279;51.448;7.306;2023-07-13T07:13:32;7.63;;;3.27;;
4533;SDS011;2279;51.448;7.306;2023-07-13T07:15:58;8.47;;;4.33;;
4533;SDS011;2279;51.448;7.306;2023-07-13T07:18:25;6.43;;;3.00;;
4533;SDS011;2279;51.448;7.306;2023-07-13T07:20:51;7.53;;;3.63;;
4533;SDS011;2279;51.448;7.306;2023-07-13T07:23:18;6.50;;;3.43;;
4533;SDS011;2279;51.448;7.306;2023-07-13T07:25:45;6.30;;;3.70;;
4533;SDS011;2279;51.448;7.306;2023-07-13T07:28:11;5.60;;;2.87;;
4533;SDS011;2279;51.448;7.306;2023-07-13T07:30:37;5.80;;;3.63;;
4533;SDS011;2279;51.448;7.306;2023-07-13T07:33:03;9.37;;;3.87;;
4533;SDS011;2279;51.448;7.306;2023-07-13T07:35:29;9.87;;;3.83;;
4533;SDS011;2279;51.448;7.306;2023-07-13T07:37:56;6.27;;;3.40;;
4533;SDS011;2279;51.448;7.306;2023-07-13T07:40:23;6.27;;;3.50;;
4533;SDS011;2279;51.448;7.306;2023-07-13T07:42:50;7.00;;;2.97;;
4533;SDS011;2279;51.448;7.306;2023-07-13T07:45:16;3.90;;;3.20;;
4533;SDS011;2279;51.448;7.306;2023-07-13T07:47:42;9.33;;;3.67;;
4533;SDS011;2279;51.448;7.306;2023-07-13T07:50:08;8.60;;;3.13;;
4533;SDS011;2279;51.448;7.306;2023-07-13T07:52:34;10.60;;;3.20;;
4533;SDS011;2279;51.448;7.306;2023-07-13T07:55:00;9.60;;;3.40;;
4533;SDS011;2279;51.448;7.306;2023-07-13T07:57:26;8.93;;;3.43;;
4533;SDS011;2279;51.448;7.306;2023-07-13T07:59:52;7.07;;;3.30;;
4533;SDS011;2279;51.448;7.306;2023-07-13T08:02:18;12.60;;;2.90;;
4533;SDS011;2279;51.448;7.306;2023-07-13T08:04:44;7.63;;;3.27;;
4533;SDS011;2279;51.448;7.306;2023-07-13T08:07:10;8.10;;;3.00;;
4533;SDS011;2279;51.448;7.306;2023-07-13T08:09:36;7.20;;;2.83;;
4533;SDS011;2279;51.448;7.306;2023-07-13T08:12:02;11.60;;;2.73;;
4533;SDS011;2279;51.448;7.306;2023-07-13T08:14:28;6.23;;;3.50;;
4533;SDS011;2279;51.448;7.306;2023-07-13T08:16:54;13.20;;;2.93;;
4533;SDS011;2279;51.448;7.306;2023-07-13T08:19:20;7.23;;;3.00;;
4533;SDS011;2279;51.448;7.306;2023-07-13T08:21:46;9.47;;;3.70;;
4533;SDS011;2279;51.448;7.306;2023-07-13T08:24:13;4.70;;;3.00;;
4533;SDS011;2279;51.448;7.306;2023-07-13T08:26:40;6.73;;;3.47;;
4533;SDS011;2279;51.448;7.306;2023-07-13T08:29:06;5.57;;;3.67;;
4533;SDS011;2279;51.448;7.306;2023-07-13T08:31:34;9.17;;;3.07;;
4533;SDS011;2279;51.448;7.306;2023-07-13T08:34:00;8.13;;;3.83;;
4533;SDS011;2279;51.448;7.306;2023-07-13T08:36:26;7.10;;;3.07;;
4533;SDS011;2279;51.448;7.306;2023-07-13T08:38:53;6.03;;;3.30;;
4533;SDS011;2279;51.448;7.306;2023-07-13T08:41:19;9.10;;;3.20;;
4533;SDS011;2279;51.448;7.306;2023-07-13T08:43:48;6.10;;;3.13;;
4533;SDS011;2279;51.448;7.306;2023-07-13T08:46:17;14.23;;;3.67;;
4533;SDS011;2279;51.448;7.306;2023-07-13T08:48:46;5.67;;;3.17;;
4533;SDS011;2279;51.448;7.306;2023-07-13T08:53:59;6.13;;;3.60;;
4533;SDS011;2279;51.448;7.306;2023-07-13T08:56:27;6.47;;;3.30;;
4533;SDS011;2279;51.448;7.306;2023-07-13T09:01:59;6.80;;;3.00;;
4533;SDS011;2279;51.448;7.306;2023-07-13T09:04:31;4.80;;;3.00;;
4533;SDS011;2279;51.448;7.306;2023-07-13T09:07:20;9.23;;;2.97;;
4533;SDS011;2279;51.448;7.306;2023-07-13T09:09:57;4.60;;;2.83;;
4533;SDS011;2279;51.448;7.306;2023-07-13T09:15:01;10.57;;;3.03;;
4533;SDS011;2279;51.448;7.306;2023-07-13T09:17:40;4.17;;;2.47;;
4533;SDS011;2279;51.448;7.306;2023-07-13T09:20:14;5.43;;;2.40;;
4533;SDS011;2279;51.448;7.306;2023-07-13T09:22:44;3.80;;;2.63;;
4533;SDS011;2279;51.448;7.306;2023-07-13T09:25:29;4.63;;;2.60;;
4533;SDS011;2279;51.448;7.306;2023-07-13T09:27:58;4.90;;;3.00;;
4533;SDS011;2279;51.448;7.306;2023-07-13T09:30:33;4.13;;;2.67;;
4533;SDS011;2279;51.448;7.306;2023-07-13T09:33:00;4.40;;;2.40;;
4533;SDS011;2279;51.448;7.306;2023-07-13T09:35:27;4.40;;;2.47;;
4533;SDS011;2279;51.448;7.306;2023-07-13T09:37:57;5.43;;;2.60;;
4533;SDS011;2279;51.448;7.306;2023-07-13T09:40:30;2.80;;;2.20;;
4533;SDS011;2279;51.448;7.306;2023-07-13T09:43:02;6.83;;;2.63;;
4533;SDS011;2279;51.448;7.306;2023-07-13T09:45:32;6.70;;;2.90;;
4533;SDS011;2279;51.448;7.306;2023-07-13T09:47:59;7.00;;;3.80;;
4533;SDS011;2279;51.448;7.306;2023-07-13T09:50:25;3.37;;;3.07;;
4533;SDS011;2279;51.448;7.306;2023-07-13T09:52:54;7.40;;;2.60;;
4533;SDS011;2279;51.448;7.306;2023-07-13T09:57:50;6.80;;;2.70;;
4533;SDS011;2279;51.448;7.306;2023-07-13T10:00:28;3.73;;;2.70;;
4533;SDS011;2279;51.448;7.306;2023-07-13T10:03:02;4.30;;;3.00;;
4533;SDS011;2279;51.448;7.306;2023-07-13T10:05:28;8.50;;;3.40;;
4533;SDS011;2279;51.448;7.306;2023-07-13T10:08:02;6.97;;;2.97;;
4533;SDS011;2279;51.448;7.306;2023-07-13T10:10:28;8.83;;;4.20;;
4533;SDS011;2279;51.448;7.306;2023-07-13T10:12:55;6.30;;;2.30;;
4533;SDS011;2279;51.448;7.306;2023-07-13T10:15:23;3.80;;;2.67;;
4533;SDS011;2279;51.448;7.306;2023-07-13T10:17:51;3.60;;;2.50;;
4533;SDS011;2279;51.448;7.306;2023-07-13T10:20:18;4.83;;;3.03;;
4533;SDS011;2279;51.448;7.306;2023-07-13T10:22:59;3.60;;;2.63;;
4533;SDS011;2279;51.448;7.306;2023-07-13T10:25:27;2.70;;;2.50;;
4533;SDS011;2279;51.448;7.306;2023-07-13T10:28:03;5.60;;;2.40;;
4533;SDS011;2279;51.448;7.306;2023-07-13T10:30:35;5.53;;;2.50;;
4533;SDS011;2279;51.448;7.306;2023-07-13T10:33:08;2.73;;;2.20;;
4533;SDS011;2279;51.448;7.306;2023-07-13T10:35:36;4.53;;;2.77;;
4533;SDS011;2279;51.448;7.306;2023-07-13T10:38:04;6.63;;;2.77;;
4533;SDS011;2279;51.448;7.306;2023-07-13T10:40:35;4.07;;;2.10;;
4533;SDS011;2279;51.448;7.306;2023-07-13T10:43:04;3.70;;;2.53;;
4533;SDS011;2279;51.448;7.306;2023-07-13T10:45:33;11.50;;;3.60;;
4533;SDS011;2279;51.448;7.306;2023-07-13T10:48:01;5.13;;;2.30;;
4533;SDS011;2279;51.448;7.306;2023-07-13T10:50:28;4.67;;;2.40;;
4533;SDS011;2279;51.448;7.306;2023-07-13T10:52:55;4.43;;;2.20;;
4533;SDS011;2279;51.448;7.306;2023-07-13T10:55:30;3.27;;;2.33;;
4533;SDS011;2279;51.448;7.306;2023-07-13T10:57:59;5.13;;;2.77;;
4533;SDS011;2279;51.448;7.306;2023-07-13T11:00:26;4.73;;;2.60;;
4533;SDS011;2279;51.448;7.306;2023-07-13T11:02:58;2.67;;;2.47;;
4533;SDS011;2279;51.448;7.306;2023-07-13T11:07:56;6.30;;;2.83;;
4533;SDS011;2279;51.448;7.306;2023-07-13T11:13:27;5.70;;;2.57;;
4533;SDS011;2279;51.448;7.306;2023-07-13T11:15:53;6.23;;;2.30;;
4533;SDS011;2279;51.448;7.306;2023-07-13T11:18:21;3.87;;;2.80;;
4533;SDS011;2279;51.448;7.306;2023-07-13T11:20:50;7.67;;;2.87;;
4533;SDS011;2279;51.448;7.306;2023-07-13T11:25:42;3.47;;;2.53;;
4533;SDS011;2279;51.448;7.306;2023-07-13T11:28:21;4.93;;;2.40;;
4533;SDS011;2279;51.448;7.306;2023-07-13T11:33:25;6.77;;;2.20;;
4533;SDS011;2279;51.448;7.306;2023-07-13T11:35:58;3.97;;;2.50;;
4533;SDS011;2279;51.448;7.306;2023-07-13T11:38:31;6.37;;;2.40;;
4533;SDS011;2279;51.448;7.306;2023-07-13T11:40:58;4.17;;;1.90;;
4533;SDS011;2279;51.448;7.306;2023-07-13T11:43:28;3.20;;;2.10;;
4533;SDS011;2279;51.448;7.306;2023-07-13T11:45:54;4.13;;;2.20;;
4533;SDS011;2279;51.448;7.306;2023-07-13T11:48:26;2.93;;;2.40;;
4533;SDS011;2279;51.448;7.306;2023-07-13T11:51:00;6.10;;;2.43;;
4533;SDS011;2279;51.448;7.306;2023-07-13T11:53:28;6.17;;;2.40;;
4533;SDS011;2279;51.448;7.306;2023-07-13T11:55:55;5.23;;;2.20;;
4533;SDS011;2279;51.448;7.306;2023-07-13T11:58:24;2.80;;;2.33;;
4533;SDS011;2279;51.448;7.306;2023-07-13T12:00:51;2.23;;;2.03;;
4533;SDS011;2279;51.448;7.306;2023-07-13T12:03:20;2.20;;;2.00;;
4533;SDS011;2279;51.448;7.306;2023-07-13T12:06:23;4.37;;;2.23;;
4533;SDS011;2279;51.448;7.306;2023-07-13T12:08:41;3.33;;;2.10;;
4533;SDS011;2279;51.448;7.306;2023-07-13T12:11:15;2.97;;;2.10;;
4533;SDS011;2279;51.448;7.306;2023-07-13T12:13:43;11.33;;;2.07;;
4533;SDS011;2279;51.448;7.306;2023-07-13T12:16:14;3.17;;;1.97;;
4533;SDS011;2279;51.448;7.306;2023-07-13T12:18:41;5.10;;;2.10;;
4533;SDS011;2279;51.448;7.306;2023-07-13T12:21:12;3.80;;;2.00;;
4533;SDS011;2279;51.448;7.306;2023-07-13T12:23:39;2.30;;;2.10;;
4533;SDS011;2279;51.448;7.306;2023-07-13T12:26:06;3.40;;;2.27;;
4533;SDS011;2279;51.448;7.306;2023-07-13T12:28:52;4.00;;;1.83;;
4533;SDS011;2279;51.448;7.306;2023-07-13T12:33:56;4.03;;;2.23;;
4533;SDS011;2279;51.448;7.306;2023-07-13T12:36:22;4.07;;;2.17;;
4533;SDS011;2279;51.448;7.306;2023-07-13T12:38:48;4.43;;;2.60;;
4533;SDS011;2279;51.448;7.306;2023-07-13T12:41:16;3.70;;;1.90;;
4533;SDS011;2279;51.448;7.306;2023-07-13T12:43:42;5.23;;;2.50;;
4533;SDS011;2279;51.448;7.306;2023-07-13T12:46:17;4.33;;;2.13;;
4533;SDS011;2279;51.448;7.306;2023-07-13T12:48:47;4.70;;;2.10;;
4533;SDS011;2279;51.448;7.306;2023-07-13T12:51:14;3.10;;;1.90;;
4533;SDS011;2279;51.448;7.306;2023-07-13T12:53:42;2.87;;;2.00;;
4533;SDS011;2279;51.448;7.306;2023-07-13T12:56:11;4.77;;;1.70;;
4533;SDS011;2279;51.448;7.306;2023-07-13T12:58:43;9.80;;;2.00;;
4533;SDS011;2279;51.448;7.306;2023-07-13T13:01:11;3.93;;;2.20;;
4533;SDS011;2279;51.448;7.306;2023-07-13T13:03:39;2.53;;;1.97;;
4533;SDS011;2279;51.448;7.306;2023-07-13T13:08:41;2.13;;;1.97;;
4533;SDS011;2279;51.448;7.306;2023-07-13T13:11:08;5.80;;;2.63;;
4533;SDS011;2279;51.448;7.306;2023-07-13T13:13:35;4.33;;;2.23;;
4533;SDS011;2279;51.448;7.306;2023-07-13T13:16:01;3.30;;;1.90;;
4533;SDS011;2279;51.448;7.306;2023-07-13T13:18:31;3.80;;;2.77;;
4533;SDS011;2279;51.448;7.306;2023-07-13T13:20:57;3.20;;;1.93;;
4533;SDS011;2279;51.448;7.306;2023-07-13T13:23:23;4.43;;;2.33;;
4533;SDS011;2279;51.448;7.306;2023-07-13T13:25:50;2.00;;;1.80;;
4533;SDS011;2279;51.448;7.306;2023-07-13T13:28:18;5.20;;;2.40;;
4533;SDS011;2279;51.448;7.306;2023-07-13T13:30:45;2.60;;;2.00;;
4533;SDS011;2279;51.448;7.306;2023-07-13T13:33:16;3.80;;;2.10;;
4533;SDS011;2279;51.448;7.306;2023-07-13T13:35:43;1.83;;;1.70;;
4533;SDS011;2279;51.448;7.306;2023-07-13T13:38:12;2.63;;;2.30;;
4533;SDS011;2279;51.448;7.306;2023-07-13T13:40:40;3.90;;;2.00;;
4533;SDS011;2279;51.448;7.306;2023-07-13T13:43:17;5.07;;;2.00;;
4533;SDS011;2279;51.448;7.306;2023-07-13T13:45:43;3.40;;;2.27;;
4533;SDS011;2279;51.448;7.306;2023-07-13T13:48:13;5.23;;;2.40;;
4533;SDS011;2279;51.448;7.306;2023-07-13T13:50:39;3.50;;;2.10;;
4533;SDS011;2279;51.448;7.306;2023-07-13T13:53:09;5.17;;;2.67;;
4533;SDS011;2279;51.448;7.306;2023-07-13T13:55:35;4.47;;;2.90;;
4533;SDS011;2279;51.448;7.306;2023-07-13T13:58:02;3.93;;;2.90;;
4533;SDS011;2279;51.448;7.306;2023-07-13T14:00:28;2.90;;;2.70;;
4533;SDS011;2279;51.448;7.306;2023-07-13T14:02:55;5.40;;;2.83;;
4533;SDS011;2279;51.448;7.306;2023-07-13T14:05:23;3.20;;;3.00;;
4533;SDS011;2279;51.448;7.306;2023-07-13T14:07:51;4.47;;;2.67;;
4533;SDS011;2279;51.448;7.306;2023-07-13T14:10:18;6.57;;;3.10;;
4533;SDS011;2279;51.448;7.306;2023-07-13T14:12:45;4.70;;;2.47;;
4533;SDS011;2279;51.448;7.306;2023-07-13T14:15:21;3.13;;;2.77;;
4533;SDS011;2279;51.448;7.306;2023-07-13T14:17:47;4.93;;;3.43;;
4533;SDS011;2279;51.448;7.306;2023-07-13T14:20:17;4.17;;;3.40;;
4533;SDS011;2279;51.448;7.306;2023-07-13T14:22:44;6.00;;;2.67;;
4533;SDS011;2279;51.448;7.306;2023-07-13T14:25:11;4.87;;;3.93;;
4533;SDS011;2279;51.448;7.306;2023-07-13T14:27:37;3.97;;;3.03;;
4533;SDS011;2279;51.448;7.306;2023-07-13T14:30:07;3.83;;;3.30;;
4533;SDS011;2279;51.448;7.306;2023-07-13T14:32:37;8.10;;;3.13;;
4533;SDS011;2279;51.448;7.306;2023-07-13T14:35:03;8.60;;;3.80;;
4533;SDS011;2279;51.448;7.306;2023-07-13T14:37:30;3.20;;;2.90;;
4533;SDS011;2279;51.448;7.306;2023-07-13T14:39:56;3.87;;;3.10;;
4533;SDS011;2279;51.448;7.306;2023-07-13T14:42:22;4.43;;;3.47;;
4533;SDS011;2279;51.448;7.306;2023-07-13T14:44:50;10.60;;;3.97;;
4533;SDS011;2279;51.448;7.306;2023-07-13T14:47:16;9.13;;;3.43;;
4533;SDS011;2279;51.448;7.306;2023-07-13T14:49:43;4.83;;;2.83;;
4533;SDS011;2279;51.448;7.306;2023-07-13T14:52:13;6.00;;;3.40;;
4533;SDS011;2279;51.448;7.306;2023-07-13T14:54:40;3.30;;;3.00;;
4533;SDS011;2279;51.448;7.306;2023-07-13T14:57:09;4.57;;;3.43;;
4533;SDS011;2279;51.448;7.306;2023-07-13T14:59:35;9.20;;;4.23;;
4533;SDS011;2279;51.448;7.306;2023-07-13T15:02:02;8.73;;;3.47;;
4533;SDS011;2279;51.448;7.306;2023-07-13T15:04:29;4.40;;;4.00;;
4533;SDS011;2279;51.448;7.306;2023-07-13T15:07:00;4.67;;;3.83;;
4533;SDS011;2279;51.448;7.306;2023-07-13T15:09:28;6.60;;;4.50;;
4533;SDS011;2279;51.448;7.306;2023-07-13T15:11:55;9.80;;;3.93;;
4533;SDS011;2279;51.448;7.306;2023-07-13T15:14:22;7.23;;;4.67;;
4533;SDS011;2279;51.448;7.306;2023-07-13T15:16:50;9.80;;;5.73;;
4533;SDS011;2279;51.448;7.306;2023-07-13T15:19:17;8.90;;;4.73;;
4533;SDS011;2279;51.448;7.306;2023-07-13T15:21:45;6.03;;;4.17;;
4533;SDS011;2279;51.448;7.306;2023-07-13T15:24:12;5.00;;;4.13;;
4533;SDS011;2279;51.448;7.306;2023-07-13T15:26:38;7.00;;;4.13;;
4533;SDS011;2279;51.448;7.306;2023-07-13T15:29:04;4.30;;;3.90;;
4533;SDS011;2279;51.448;7.306;2023-07-13T15:31:30;5.87;;;4.43;;
4533;SDS011;2279;51.448;7.306;2023-07-13T15:33:59;4.70;;;4.30;;
4533;SDS011;2279;51.448;7.306;2023-07-13T15:36:25;10.93;;;4.97;;
4533;SDS011;2279;51.448;7.306;2023-07-13T15:38:52;7.87;;;3.40;;
4533;SDS011;2279;51.448;7.306;2023-07-13T15:41:20;6.20;;;3.67;;
4533;SDS011;2279;51.448;7.306;2023-07-13T15:43:48;8.33;;;4.13;;
4533;SDS011;2279;51.448;7.306;2023-07-13T15:46:15;9.77;;;4.10;;
4533;SDS011;2279;51.448;7.306;2023-07-13T15:48:41;4.60;;;3.60;;